Time;durP1;ratioP1;P1;durP2;ratioP2;P2;SDS_P1;SDS_P2;PMS_P1;PMS_P2;Temp;Humidity;BMP_temperature;BMP_pressure;BME280_temperature;BME280_humidity;BME280_pressure;Samples;Min_cycle;Max_cycle;Signal;HPM_P1;HPM_P2
2022/10/18 00:01:22;;;;;;;19.10;8.20;;;;;;;13.88;59.21;100111.27;103074;1302;110691;-75
2022/10/18 00:03:49;;;;;;;24.80;9.30;;;;;;;13.87;59.07;100108.70;103057;1295;97813;-75
2022/10/18 00:06:17;;;;;;;18.30;8.20;;;;;;;13.85;59.34;100105.45;103026;1303;108727;-73
2022/10/18 00:08:45;;;;;;;18.10;8.70;;;;;;;13.82;59.14;100103.12;103050;1303;97941;-73
2022/10/18 00:11:12;;;;;;;18.00;8.10;;;;;;;13.82;59.16;100103.51;103092;1303;95237;-75
2022/10/18 00:13:42;;;;;;;18.70;8.40;;;;;;;13.81;59.20;100102.88;103134;1302;111245;-75
2022/10/18 00:16:15;;;;;;;18.00;8.20;;;;;;;13.81;59.28;100106.23;103121;1302;97992;-75
2022/10/18 00:18:47;;;;;;;20.70;8.70;;;;;;;13.83;59.22;100101.85;103081;1304;107626;-77
2022/10/18 00:21:18;;;;;;;19.40;8.00;;;;;;;13.82;59.23;100101.16;103055;1303;97895;-77
2022/10/18 00:23:49;;;;;;;26.80;8.80;;;;;;;13.83;59.36;100098.83;103051;1305;97986;-76
2022/10/18 00:26:25;;;;;;;17.70;7.80;;;;;;;13.82;59.27;100094.44;103046;1304;111177;-75
2022/10/18 00:29:00;;;;;;;18.80;7.80;;;;;;;13.81;59.41;100094.65;103160;1306;97970;-76
2022/10/18 00:31:37;;;;;;;18.90;8.60;;;;;;;13.81;59.38;100089.48;102909;1303;107469;-76
2022/10/18 00:34:10;;;;;;;20.90;8.70;;;;;;;13.81;59.34;100087.89;102962;1305;96449;-76
2022/10/18 00:36:40;;;;;;;22.00;8.40;;;;;;;13.80;59.35;100081.03;103102;1301;97828;-75
2022/10/18 00:39:13;;;;;;;19.90;8.60;;;;;;;13.79;59.36;100084.84;103049;1304;112245;-75
2022/10/18 00:41:40;;;;;;;19.20;8.00;;;;;;;13.78;59.55;100082.59;103050;1303;96214;-75
2022/10/18 00:44:11;;;;;;;19.00;7.70;;;;;;;13.77;59.45;100079.77;103122;1303;107420;-74
2022/10/18 00:46:47;;;;;;;17.80;7.90;;;;;;;13.77;59.50;100080.12;103114;1298;97954;-74
2022/10/18 00:49:20;;;;;;;18.60;8.30;;;;;;;13.77;59.50;100077.98;103119;1303;97978;-74
2022/10/18 00:51:59;;;;;;;18.70;8.40;;;;;;;13.78;59.58;100074.02;103121;1303;111273;-75
2022/10/18 00:54:31;;;;;;;24.70;9.60;;;;;;;13.80;59.72;100072.96;103154;1303;95236;-75
2022/10/18 00:57:01;;;;;;;20.30;8.10;;;;;;;13.83;59.62;100071.02;103152;1304;107470;-74
2022/10/18 00:59:31;;;;;;;18.80;7.90;;;;;;;13.84;59.62;100074.83;103088;1296;97983;-75
2022/10/18 01:02:03;;;;;;;18.40;8.30;;;;;;;13.86;59.59;100069.59;103078;1305;97907;-73
2022/10/18 01:04:32;;;;;;;20.00;8.00;;;;;;;13.87;59.58;100065.01;103141;1298;111121;-74
2022/10/18 01:07:18;;;;;;;22.30;7.60;;;;;;;13.88;59.77;100059.26;103119;1303;98667;-75
2022/10/18 01:10:00;;;;;;;17.30;8.10;;;;;;;13.89;59.72;100055.45;103025;1290;107218;-74
2022/10/18 01:12:46;;;;;;;18.80;8.00;;;;;;;13.89;59.68;100057.38;103043;1298;97995;-74
2022/10/18 01:15:37;;;;;;;18.00;7.90;;;;;;;13.90;59.80;100058.76;102917;1298;97961;-74
2022/10/18 01:18:29;;;;;;;19.70;8.20;;;;;;;13.91;59.76;100051.91;103038;1303;111204;-74
2022/10/18 01:21:14;;;;;;;19.90;7.60;;;;;;;13.91;59.77;100044.41;103076;1305;97875;-75
2022/10/18 01:24:20;;;;;;;19.20;7.80;;;;;;;13.91;59.94;100043.32;103067;1302;107215;-77
2022/10/18 01:27:15;;;;;;;17.50;7.30;;;;;;;13.91;59.82;100038.91;103119;1306;97958;-76
2022/10/18 01:29:52;;;;;;;18.20;7.60;;;;;;;13.90;59.87;100041.64;103122;1296;97985;-76
2022/10/18 01:32:33;;;;;;;22.80;7.80;;;;;;;13.90;59.85;100040.21;102878;1306;112196;-75
2022/10/18 01:35:06;;;;;;;18.10;8.20;;;;;;;13.88;59.86;100035.31;102999;1296;97486;-75
2022/10/18 01:37:36;;;;;;;;;;;;;;;13.87;59.99;100032.21;103032;1304;107693;-75
2022/10/18 01:40:08;;;;;;;18.00;7.50;;;;;;;13.82;60.08;100034.33;103051;1304;97893;-75
2022/10/18 01:42:35;;;;;;;20.60;8.00;;;;;;;13.82;59.96;100032.03;103086;1299;97880;-75
2022/10/18 01:45:06;;;;;;;16.10;7.70;;;;;;;13.81;59.98;100032.10;103068;1307;111083;-75
2022/10/18 01:47:37;;;;;;;16.30;7.80;;;;;;;13.79;60.12;100028.13;103107;1290;97900;-75
2022/10/18 01:50:05;;;;;;;18.60;7.80;;;;;;;13.78;60.06;100028.00;103018;1304;107084;-76
2022/10/18 01:52:35;;;;;;;21.80;8.20;;;;;;;13.76;59.99;100024.44;103044;1306;97780;-75
2022/10/18 01:55:05;;;;;;;21.20;8.30;;;;;;;13.74;60.00;100021.89;103099;1303;96250;-76
2022/10/18 01:57:39;;;;;;;18.00;7.30;;;;;;;13.72;60.01;100023.64;103090;1298;112113;-75
2022/10/18 02:00:23;;;;;;;12.80;5.90;;;;;;;13.70;60.00;100023.59;103126;1302;95233;-74
2022/10/18 02:03:12;;;;;;;17.70;7.70;;;;;;;13.68;60.06;100021.95;103101;1302;107887;-74
2022/10/18 02:06:15;;;;;;;18.20;7.60;;;;;;;13.66;60.06;100018.65;103029;1312;97857;-76
2022/10/18 02:08:55;;;;;;;23.20;7.80;;;;;;;13.65;60.13;100016.79;103067;1305;98396;-76
2022/10/18 02:11:27;;;;;;;18.40;7.70;;;;;;;13.65;60.19;100015.41;103081;1301;110830;-74
2022/10/18 02:14:07;;;;;;;18.40;7.40;;;;;;;13.65;60.14;100011.80;103064;1303;96535;-75
2022/10/18 02:16:44;;;;;;;19.60;7.80;;;;;;;13.66;60.24;100008.88;103053;1304;107487;-74
2022/10/18 02:19:28;;;;;;;21.40;7.60;;;;;;;13.68;60.16;100005.73;102971;1307;97987;-75
2022/10/18 02:21:59;;;;;;;15.50;6.90;;;;;;;13.69;60.27;100003.85;103066;1310;97966;-75
2022/10/18 02:24:36;;;;;;;15.00;6.60;;;;;;;13.70;60.24;100003.10;103097;1304;111267;-74
2022/10/18 02:27:06;;;;;;;17.20;7.70;;;;;;;13.71;60.11;100000.15;103027;1304;97957;-74
2022/10/18 02:29:36;;;;;;;19.60;7.20;;;;;;;13.72;60.24;100001.03;103064;1298;107490;-75
2022/10/18 02:32:25;;;;;;;16.40;7.00;;;;;;;13.71;60.17;99998.57;103113;1298;98077;-75
2022/10/18 02:35:03;;;;;;;16.70;6.80;;;;;;;13.69;60.14;99996.75;103065;1303;98016;-75
2022/10/18 02:37:39;;;;;;;17.40;6.80;;;;;;;13.67;60.14;99995.25;103098;1297;110874;-75
2022/10/18 02:40:09;;;;;;;16.70;7.50;;;;;;;13.65;60.16;99995.80;103046;1303;97902;-75
2022/10/18 02:42:47;;;;;;;18.80;7.10;;;;;;;13.64;60.26;99992.14;103076;1305;107246;-75
2022/10/18 02:45:16;;;;;;;18.40;7.20;;;;;;;13.64;60.28;99989.98;103039;1304;97975;-77
2022/10/18 02:47:44;;;;;;;16.00;7.00;;;;;;;13.63;60.26;99991.10;103104;1298;95844;-76
2022/10/18 02:50:14;;;;;;;20.10;7.20;;;;;;;13.61;60.36;99994.79;103085;1304;111048;-75
2022/10/18 02:52:45;;;;;;;18.60;7.80;;;;;;;13.59;60.31;99994.42;103088;1303;97950;-76
2022/10/18 02:55:13;;;;;;;18.20;7.70;;;;;;;13.59;60.38;99994.98;103068;1302;107480;-75
2022/10/18 02:57:40;;;;;;;17.10;7.60;;;;;;;13.57;60.35;99994.05;103133;1298;97917;-76
2022/10/18 03:00:09;;;;;;;18.30;7.60;;;;;;;13.54;60.43;99992.40;103072;1303;98010;-75
2022/10/18 03:02:37;;;;;;;18.10;7.90;;;;;;;13.53;60.63;99992.88;103069;1298;109825;-75
2022/10/18 03:05:04;;;;;;;19.00;8.40;;;;;;;13.51;60.58;99989.96;103094;1303;98035;-75
2022/10/18 03:07:32;;;;;;;21.00;8.30;;;;;;;13.51;60.48;99989.81;103091;1303;108456;-77
2022/10/18 03:10:04;;;;;;;18.60;7.40;;;;;;;13.52;60.83;99982.77;103138;1295;98553;-77
2022/10/18 03:12:32;;;;;;;14.90;6.60;;;;;;;13.57;60.95;99978.55;103101;1304;97894;-75
2022/10/18 03:15:00;;;;;;;19.30;7.10;;;;;;;13.63;60.80;99979.19;103068;1302;111157;-76
2022/10/18 03:17:27;;;;;;;21.80;7.60;;;;;;;13.69;60.84;99973.57;103106;1296;96462;-74
2022/10/18 03:19:57;;;;;;;19.40;7.70;;;;;;;13.77;60.78;99976.06;103028;1295;106709;-76
2022/10/18 03:22:26;;;;;;;16.60;7.50;;;;;;;13.84;60.81;99974.66;103020;1304;97982;-75
2022/10/18 03:25:00;;;;;;;15.80;6.30;;;;;;;13.91;60.78;99976.84;103079;1304;97912;-75
2022/10/18 03:27:27;;;;;;;16.80;7.10;;;;;;;13.98;60.79;99985.75;103120;1305;110986;-76
2022/10/18 03:29:58;;;;;;;16.70;7.50;;;;;;;14.05;60.75;99989.21;103095;1303;96449;-76
2022/10/18 03:32:30;;;;;;;15.70;6.80;;;;;;;14.10;60.72;99982.41;103088;1303;107645;-77
2022/10/18 03:34:59;;;;;;;16.40;7.20;;;;;;;14.13;60.71;99983.40;103076;1298;97981;-76
2022/10/18 03:37:27;;;;;;;18.30;7.90;;;;;;;14.17;60.71;99982.98;103111;1298;96572;-75
2022/10/18 03:39:55;;;;;;;15.60;7.20;;;;;;;14.20;60.65;99987.41;103126;1300;110769;-76
2022/10/18 03:42:23;;;;;;;15.70;6.10;;;;;;;14.23;60.66;99992.33;103121;1305;98636;-77
2022/10/18 03:44:50;;;;;;;18.40;6.80;;;;;;;14.25;60.62;99992.55;103093;1297;107353;-75
2022/10/18 03:47:20;;;;;;;19.20;7.70;;;;;;;14.27;60.61;99991.36;103069;1297;97903;-76
2022/10/18 03:49:48;;;;;;;16.70;6.70;;;;;;;14.27;60.62;99990.06;103095;1303;97991;-75
2022/10/18 03:52:21;;;;;;;;;;;;;;;14.29;60.56;99989.95;103114;1303;112836;-75
2022/10/18 03:54:49;;;;;;;19.50;7.60;;;;;;;14.28;60.61;99988.94;103163;1303;96298;-75
2022/10/18 03:57:18;;;;;;;15.80;6.80;;;;;;;14.29;60.53;99991.70;103044;1297;107633;-76
2022/10/18 03:59:47;;;;;;;19.50;7.00;;;;;;;14.30;60.59;99995.41;103032;1296;97854;-76
2022/10/18 04:02:15;;;;;;;16.30;7.10;;;;;;;14.31;60.51;99991.25;103133;1300;95890;-75
2022/10/18 04:04:42;;;;;;;17.40;7.50;;;;;;;14.32;60.50;99992.42;103113;1307;111150;-75
2022/10/18 04:07:10;;;;;;;18.00;7.10;;;;;;;14.32;60.48;99991.52;103071;1297;97917;-77
2022/10/18 04:09:38;;;;;;;18.10;7.20;;;;;;;14.33;60.51;99994.53;103068;1304;107158;-75
2022/10/18 04:12:06;;;;;;;16.30;6.70;;;;;;;14.32;60.43;99995.27;103087;1304;97978;-76
2022/10/18 04:14:33;;;;;;;16.40;7.20;;;;;;;14.31;60.44;99997.84;103152;1297;97932;-77
2022/10/18 04:17:01;;;;;;;18.80;6.90;;;;;;;14.31;60.47;99996.04;103118;1297;111033;-76
2022/10/18 04:19:32;;;;;;;18.90;7.00;;;;;;;14.32;60.47;99996.53;103075;1293;97882;-73
2022/10/18 04:22:02;;;;;;;17.20;7.00;;;;;;;14.32;60.40;100001.90;102911;1299;107518;-76
2022/10/18 04:24:32;;;;;;;14.70;6.20;;;;;;;14.32;60.42;100002.80;103142;1304;97973;-76
2022/10/18 04:26:59;;;;;;;16.90;7.00;;;;;;;14.32;60.40;100003.70;103103;1304;96377;-75
2022/10/18 04:29:27;;;;;;;17.30;6.90;;;;;;;14.31;60.44;100006.20;103059;1302;110771;-75
2022/10/18 04:31:55;;;;;;;16.00;6.80;;;;;;;14.30;60.41;100008.63;103115;1298;98535;-76
2022/10/18 04:34:23;;;;;;;17.30;6.40;;;;;;;14.29;60.36;100009.94;103131;1304;107328;-75
2022/10/18 04:36:51;;;;;;;15.10;6.50;;;;;;;14.28;60.39;100010.39;103088;1304;97944;-75
2022/10/18 04:39:20;;;;;;;15.70;7.00;;;;;;;14.27;60.34;100006.35;103088;1303;97992;-76
2022/10/18 04:41:48;;;;;;;14.60;7.00;;;;;;;14.26;60.39;100013.05;103097;1304;110877;-76
2022/10/18 04:44:16;;;;;;;15.20;6.60;;;;;;;14.24;60.32;100011.35;101778;1298;1876897;-75
2022/10/18 04:46:43;;;;;;;16.00;7.00;;;;;;;14.22;60.30;100012.95;103087;1299;107533;-76
2022/10/18 04:49:11;;;;;;;18.90;7.20;;;;;;;14.21;60.34;100010.89;103132;1304;98542;-76
2022/10/18 04:51:39;;;;;;;15.70;6.80;;;;;;;14.19;60.30;100006.39;103182;1302;98001;-77
2022/10/18 04:54:07;;;;;;;18.20;6.80;;;;;;;14.18;60.29;100008.23;103138;1299;111178;-77
2022/10/18 04:56:34;;;;;;;17.20;7.50;;;;;;;14.18;60.34;100005.79;103167;1300;97901;-78
2022/10/18 04:59:02;;;;;;;18.90;7.60;;;;;;;14.16;60.33;100006.27;103112;1303;106115;-76
2022/10/18 05:01:30;;;;;;;17.10;7.10;;;;;;;14.15;60.30;100004.38;103095;1299;95148;-75
2022/10/18 05:03:58;;;;;;;19.30;7.60;;;;;;;14.13;60.33;100003.61;103101;1298;95177;-76
2022/10/18 05:06:26;;;;;;;17.10;7.10;;;;;;;14.12;60.34;100004.41;103164;1296;110906;-76
2022/10/18 05:08:55;;;;;;;22.90;7.40;;;;;;;14.12;60.33;100005.11;103141;1303;95212;-74
2022/10/18 05:11:23;;;;;;;17.80;6.90;;;;;;;14.11;60.29;100007.31;103080;1290;107345;-77
2022/10/18 05:13:51;;;;;;;17.60;7.00;;;;;;;14.10;60.32;100006.64;103029;1304;96198;-75
2022/10/18 05:16:18;;;;;;;18.90;7.70;;;;;;;14.09;60.32;100006.36;103085;1304;97903;-77
2022/10/18 05:18:46;;;;;;;17.60;7.50;;;;;;;14.09;60.34;100008.16;103143;1297;111244;-76
2022/10/18 05:21:16;;;;;;;17.20;7.10;;;;;;;14.10;60.32;100004.90;103091;1303;96620;-76
2022/10/18 05:23:46;;;;;;;18.60;7.80;;;;;;;14.10;60.33;100009.91;103046;1296;107224;-77
2022/10/18 05:26:14;;;;;;;16.10;7.60;;;;;;;14.10;60.30;100007.70;103123;1304;97996;-75
2022/10/18 05:28:41;;;;;;;17.30;7.20;;;;;;;14.11;60.36;100007.69;103096;1302;95203;-75
2022/10/18 05:31:11;;;;;;;22.40;7.10;;;;;;;14.12;60.34;100013.14;103145;1304;111342;-75
2022/10/18 05:33:39;;;;;;;17.10;7.60;;;;;;;14.12;60.27;100017.02;103020;1304;95941;-76
2022/10/18 05:36:09;;;;;;;18.70;7.50;;;;;;;14.12;60.28;100016.86;103105;1304;107474;-74
2022/10/18 05:38:41;;;;;;;18.50;7.60;;;;;;;14.12;60.26;100013.81;103111;1298;97997;-77
2022/10/18 05:41:12;;;;;;;20.00;8.10;;;;;;;14.13;60.29;100014.29;103099;1302;97936;-76
2022/10/18 05:43:40;;;;;;;19.50;7.80;;;;;;;14.14;60.33;100017.95;103076;1302;111324;-76
2022/10/18 05:46:11;;;;;;;18.30;7.50;;;;;;;14.15;60.33;100013.83;103046;1304;97977;-76
2022/10/18 05:48:43;;;;;;;20.10;7.70;;;;;;;14.16;60.32;100014.99;103037;1298;107108;-76
2022/10/18 05:51:13;;;;;;;18.80;8.30;;;;;;;14.17;60.35;100019.94;103051;1296;97842;-76
2022/10/18 05:53:41;;;;;;;21.80;7.40;;;;;;;14.19;60.36;100023.02;103071;1296;97883;-75
2022/10/18 05:56:10;;;;;;;17.90;8.30;;;;;;;14.20;60.29;100020.98;103126;1303;111338;-76
2022/10/18 05:58:41;;;;;;;22.10;7.80;;;;;;;14.20;60.32;100019.49;103071;1296;97882;-76
2022/10/18 06:01:10;;;;;;;22.60;8.20;;;;;;;14.22;60.38;100024.91;103087;1292;107465;-75
2022/10/18 06:03:37;;;;;;;22.40;8.20;;;;;;;14.23;60.34;100027.86;103161;1304;95512;-74
2022/10/18 06:06:09;;;;;;;18.80;7.70;;;;;;;14.25;60.34;100032.36;103154;1297;96343;-75
2022/10/18 06:08:40;;;;;;;22.10;8.00;;;;;;;14.26;60.33;100031.36;103098;1296;111187;-75
2022/10/18 06:11:14;;;;;;;19.30;7.60;;;;;;;14.29;60.36;100036.55;103045;1300;97862;-76
2022/10/18 06:13:47;;;;;;;20.80;8.00;;;;;;;14.31;60.30;100038.00;103023;1297;107492;-76
2022/10/18 06:16:18;;;;;;;16.50;7.70;;;;;;;14.33;60.34;100037.34;103021;1304;98361;-76
2022/10/18 06:18:49;;;;;;;19.10;7.90;;;;;;;14.35;60.34;100040.90;103066;1297;97855;-76
2022/10/18 06:21:19;;;;;;;21.30;7.70;;;;;;;14.37;60.37;100045.20;103089;1299;111240;-75
2022/10/18 06:23:50;;;;;;;19.20;8.30;;;;;;;14.40;60.34;100040.73;103082;1297;97841;-75
2022/10/18 06:26:20;;;;;;;20.70;8.20;;;;;;;14.44;60.35;100046.70;103088;1303;107456;-76
2022/10/18 06:28:48;;;;;;;17.80;7.70;;;;;;;14.47;60.34;100043.95;103014;1298;95992;-75
2022/10/18 06:31:17;;;;;;;17.90;7.70;;;;;;;14.51;60.38;100046.00;103048;1300;97864;-76
2022/10/18 06:33:47;;;;;;;18.60;7.80;;;;;;;14.54;60.44;100047.04;103115;1296;110549;-76
2022/10/18 06:36:21;;;;;;;17.30;7.40;;;;;;;14.57;60.30;100049.79;103132;1296;98011;-76
2022/10/18 06:38:50;;;;;;;17.60;7.40;;;;;;;14.62;60.33;100054.13;103115;1304;107500;-76
2022/10/18 06:41:20;;;;;;;17.20;7.60;;;;;;;14.65;60.30;100054.41;103069;1298;97900;-76
2022/10/18 06:43:52;;;;;;;18.50;8.70;;;;;;;14.69;60.38;100053.44;103143;1298;98014;-76
2022/10/18 06:46:20;;;;;;;17.30;7.50;;;;;;;14.74;60.30;100055.97;103084;1303;111244;-76
2022/10/18 06:48:49;;;;;;;18.40;7.20;;;;;;;14.78;60.36;100056.58;103082;1296;97905;-75
2022/10/18 06:51:20;;;;;;;24.90;8.40;;;;;;;14.83;60.31;100054.91;103094;1300;107133;-76
2022/10/18 06:53:48;;;;;;;16.00;7.60;;;;;;;14.88;60.32;100052.06;103054;1296;98303;-77
2022/10/18 06:56:35;;;;;;;22.20;8.60;;;;;;;14.94;60.32;100050.89;103146;1303;98088;-79
2022/10/18 06:59:02;;;;;;;18.80;7.70;;;;;;;14.99;60.31;100051.59;103113;1304;110824;-75
2022/10/18 07:01:32;;;;;;;21.30;7.90;;;;;;;15.05;60.22;100052.06;103162;1297;97460;-75
2022/10/18 07:04:03;;;;;;;18.60;7.70;;;;;;;15.10;60.36;100048.80;103148;1304;107466;-76
2022/10/18 07:06:32;;;;;;;19.60;7.30;;;;;;;15.16;60.17;100051.89;103110;1306;97937;-76
2022/10/18 07:09:02;;;;;;;16.80;7.80;;;;;;;15.23;60.14;100054.06;103154;1298;98356;-74
2022/10/18 07:11:32;;;;;;;18.30;7.50;;;;;;;15.29;60.25;100055.94;103133;1298;111137;-76
2022/10/18 07:14:03;;;;;;;19.80;7.50;;;;;;;15.35;60.22;100052.77;103163;1298;97996;-76
2022/10/18 07:16:34;;;;;;;17.80;7.40;;;;;;;15.41;60.02;100052.33;102955;1299;106755;-76
2022/10/18 07:19:02;;;;;;;17.30;6.80;;;;;;;15.47;60.01;100047.05;103086;1290;97857;-76
2022/10/18 07:21:30;;;;;;;14.40;6.30;;;;;;;15.54;60.02;100044.71;103122;1297;97847;-75
2022/10/18 07:24:00;;;;;;;17.20;7.40;;;;;;;15.60;60.01;100044.83;103172;1297;111233;-74
2022/10/18 07:26:31;;;;;;;18.40;7.00;;;;;;;15.66;60.07;100043.61;103135;1303;98244;-74
2022/10/18 07:29:06;;;;;;;18.90;7.50;;;;;;;15.72;59.98;100043.81;103063;1296;107187;-76
2022/10/18 07:31:37;;;;;;;19.20;9.00;;;;;;;15.79;60.07;100040.13;103081;1303;95236;-75
2022/10/18 07:34:09;;;;;;;20.30;8.80;;;;;;;15.86;59.93;100039.79;103103;1297;98006;-75
2022/10/18 07:36:37;;;;;;;21.60;8.40;;;;;;;15.92;59.78;100038.18;103143;1297;110713;-75
2022/10/18 07:39:05;;;;;;;17.90;7.50;;;;;;;15.99;59.75;100038.70;103052;1297;97939;-76
2022/10/18 07:41:34;;;;;;;18.70;7.20;;;;;;;16.05;59.57;100034.67;103132;1297;107361;-77
2022/10/18 07:44:04;;;;;;;21.50;7.50;;;;;;;16.12;59.71;100031.23;103133;1304;97918;-76
2022/10/18 07:46:32;;;;;;;18.30;7.30;;;;;;;16.20;59.67;100030.27;103161;1304;97934;-74
2022/10/18 07:49:02;;;;;;;17.30;6.90;;;;;;;16.28;59.48;100031.05;102938;1305;111548;-76
2022/10/18 07:51:31;;;;;;;17.80;6.90;;;;;;;16.36;59.69;100029.88;103178;1304;96598;-75
2022/10/18 07:53:59;;;;;;;18.70;7.50;;;;;;;16.45;59.58;100026.70;103118;1304;105973;-76
2022/10/18 07:56:27;;;;;;;16.80;7.10;;;;;;;16.54;59.58;100027.70;103193;1306;97816;-76
2022/10/18 07:58:56;;;;;;;15.10;6.40;;;;;;;16.62;59.30;100027.59;103211;1299;97983;-76
2022/10/18 08:01:26;;;;;;;16.30;6.30;;;;;;;16.70;59.44;100027.64;103138;1288;111138;-75
2022/10/18 08:03:54;;;;;;;16.70;7.00;;;;;;;16.77;59.26;100027.46;103121;1304;98103;-75
2022/10/18 08:06:23;;;;;;;15.60;7.30;;;;;;;16.83;59.31;100026.76;103090;1304;106672;-75
2022/10/18 08:08:52;;;;;;;14.70;6.40;;;;;;;16.90;59.37;100026.55;103122;1304;97994;-76
2022/10/18 08:11:23;;;;;;;16.40;6.70;;;;;;;16.98;59.16;100031.40;103124;1299;96366;-75
2022/10/18 08:13:53;;;;;;;16.20;6.40;;;;;;;17.06;59.06;100028.27;103179;1299;111160;-76
2022/10/18 08:16:26;;;;;;;15.60;6.60;;;;;;;17.14;59.10;100021.89;103142;1296;96293;-75
2022/10/18 08:18:57;;;;;;;15.00;6.50;;;;;;;17.20;59.06;100015.58;103099;1304;106736;-75
2022/10/18 08:21:25;;;;;;;20.10;7.70;;;;;;;17.29;59.04;100011.30;103130;1296;97959;-75
2022/10/18 08:23:53;;;;;;;15.80;6.70;;;;;;;17.37;58.83;100008.62;102993;1312;98129;-76
2022/10/18 08:26:24;;;;;;;18.40;7.20;;;;;;;17.44;58.56;100004.79;102919;1304;111511;-76
2022/10/18 08:28:52;;;;;;;18.90;7.20;;;;;;;17.54;58.74;100005.21;102988;1305;98097;-76
2022/10/18 08:31:27;;;;;;;17.70;7.30;;;;;;;17.70;59.02;100006.11;103031;1289;108132;-79
2022/10/18 08:33:56;;;;;;;15.90;6.80;;;;;;;17.97;58.68;100002.00;102952;1297;96598;-77
2022/10/18 08:36:24;;;;;;;17.40;6.80;;;;;;;18.22;58.30;100001.04;103080;1296;95791;-76
2022/10/18 08:38:52;;;;;;;23.00;7.10;;;;;;;18.45;57.92;99997.70;103117;1290;111492;-77
2022/10/18 08:41:44;;;;;;;20.20;7.80;;;;;;;18.71;58.09;99995.02;103078;1300;95805;-76
2022/10/18 08:44:28;;;;;;;14.80;6.50;;;;;;;19.10;58.19;99994.85;103058;1297;107382;-76
2022/10/18 08:47:07;;;;;;;15.10;6.50;;;;;;;19.50;57.92;99988.08;103056;1306;98034;-76
2022/10/18 08:49:51;;;;;;;15.40;6.50;;;;;;;19.80;57.76;99987.04;103075;1289;97897;-76
2022/10/18 08:52:43;;;;;;;21.00;7.00;;;;;;;20.17;57.92;99987.40;103018;1305;109755;-76
2022/10/18 08:55:19;;;;;;;15.10;6.40;;;;;;;20.59;58.03;99985.57;102985;1305;96038;-75
2022/10/18 08:57:48;;;;;;;17.40;6.50;;;;;;;20.97;57.63;99979.44;103127;1304;107498;-74
2022/10/18 09:00:18;;;;;;;19.10;7.30;;;;;;;21.30;57.30;99973.71;103041;1298;98018;-73
2022/10/18 09:03:13;;;;;;;18.90;7.20;;;;;;;21.65;56.75;99965.98;103070;1293;97900;-75
2022/10/18 09:05:52;;;;;;;22.00;7.20;;;;;;;21.94;56.97;99956.84;103005;1305;111333;-76
2022/10/18 09:08:28;;;;;;;17.60;6.40;;;;;;;22.10;56.54;99953.86;103063;1298;97992;-78
2022/10/18 09:11:11;;;;;;;16.70;7.40;;;;;;;22.32;56.79;99955.52;103064;1299;107508;-75
2022/10/18 09:13:56;;;;;;;17.70;7.20;;;;;;;22.56;56.62;99957.13;102929;1300;97966;-75
2022/10/18 09:16:53;;;;;;;23.50;7.80;;;;;;;22.90;56.53;99950.08;102900;1301;98568;-76
2022/10/18 09:19:53;;;;;;;20.10;7.50;;;;;;;23.32;56.08;99948.54;102951;1303;110618;-76
2022/10/18 09:22:56;;;;;;;16.60;7.10;;;;;;;23.78;55.49;99946.88;102862;1307;96991;-75
2022/10/18 09:25:45;;;;;;;16.70;6.80;;;;;;;24.19;55.41;99944.35;103092;1297;107502;-77
2022/10/18 09:28:22;;;;;;;17.50;6.80;;;;;;;24.43;55.13;99936.72;102931;1293;96198;-76
2022/10/18 09:31:10;;;;;;;19.70;7.30;;;;;;;24.50;54.92;99934.70;103051;1304;97982;-78
2022/10/18 09:33:57;;;;;;;15.10;6.80;;;;;;;24.48;54.92;99934.05;103039;1302;111218;-76
2022/10/18 09:36:34;;;;;;;14.30;6.60;;;;;;;24.39;54.69;99931.00;102978;1300;98202;-77
2022/10/18 09:39:14;;;;;;;14.80;5.90;;;;;;;24.29;54.32;99927.59;102969;1300;107536;-75
2022/10/18 09:41:48;;;;;;;13.70;6.30;;;;;;;24.19;54.09;99926.08;103009;1298;95211;-77
2022/10/18 09:44:40;;;;;;;18.50;7.10;;;;;;;24.15;53.85;99927.60;103002;1290;97885;-79
2022/10/18 09:47:20;;;;;;;15.90;6.30;;;;;;;24.04;53.17;99919.63;102962;1290;111070;-78
2022/10/18 09:50:00;;;;;;;15.10;6.70;;;;;;;23.93;52.83;99915.23;103017;1297;96721;-77
2022/10/18 09:52:47;;;;;;;15.60;6.00;;;;;;;23.85;52.69;99913.39;103089;1304;107704;-78
2022/10/18 09:55:23;;;;;;;17.60;7.00;;;;;;;23.71;52.51;99905.31;102966;1303;98712;-78
2022/10/18 09:57:57;;;;;;;15.60;6.40;;;;;;;23.60;52.44;99902.30;103067;1299;95145;-78
2022/10/18 10:00:32;;;;;;;20.50;6.60;;;;;;;23.49;52.31;99902.89;103066;1297;111169;-78
2022/10/18 10:03:06;;;;;;;14.90;7.00;;;;;;;23.40;51.93;99895.04;103132;1296;97734;-76
2022/10/18 10:05:34;;;;;;;15.50;6.70;;;;;;;23.37;51.23;99885.38;103058;1297;107503;-78
2022/10/18 10:08:03;;;;;;;21.00;6.50;;;;;;;23.29;51.13;99876.40;103067;1297;98014;-77
2022/10/18 10:10:37;;;;;;;14.80;6.50;;;;;;;23.18;51.02;99872.51;102981;1297;97963;-76
2022/10/18 10:13:07;;;;;;;16.80;6.60;;;;;;;23.11;50.61;99871.44;103115;1298;111744;-76
2022/10/18 10:15:35;;;;;;;17.70;6.70;;;;;;;23.04;50.63;99868.48;103009;1298;98057;-76
2022/10/18 10:18:25;;;;;;;20.10;6.90;;;;;;;23.02;50.60;99862.41;102914;1296;107144;-77
2022/10/18 10:20:58;;;;;;;20.10;6.60;;;;;;;23.06;50.49;99856.87;103087;1303;97984;-77
2022/10/18 10:23:43;;;;;;;15.90;5.90;;;;;;;23.14;50.14;99847.50;102959;1304;97983;-77
2022/10/18 10:26:30;;;;;;;16.60;6.80;;;;;;;23.17;49.87;99844.80;103106;1298;110096;-76
2022/10/18 10:28:59;;;;;;;21.90;6.50;;;;;;;23.20;49.92;99837.49;103111;1298;97940;-75
2022/10/18 10:31:30;;;;;;;20.10;7.40;;;;;;;23.28;49.87;99837.80;103054;1297;107385;-75
2022/10/18 10:34:27;;;;;;;19.00;6.60;;;;;;;23.38;49.86;99833.25;102917;1299;95184;-75
2022/10/18 10:36:55;;;;;;;16.50;6.40;;;;;;;23.50;49.59;99830.50;103034;1297;97884;-75
2022/10/18 10:39:24;;;;;;;16.70;6.00;;;;;;;23.60;49.26;99822.18;103051;1304;111020;-76
2022/10/18 10:41:57;;;;;;;15.10;5.70;;;;;;;23.60;48.49;99820.92;103068;1296;98170;-75
2022/10/18 10:44:34;;;;;;;13.40;5.50;;;;;;;23.45;48.02;99818.31;103013;1297;106561;-75
2022/10/18 10:47:05;;;;;;;21.70;5.80;;;;;;;23.38;48.49;99817.67;102962;1297;98280;-76
2022/10/18 10:49:46;;;;;;;14.20;6.10;;;;;;;23.44;48.46;99814.96;103000;1290;95262;-76
2022/10/18 10:52:20;;;;;;;16.10;5.50;;;;;;;23.52;48.43;99804.33;102871;1297;111737;-76
2022/10/18 10:55:01;;;;;;;14.70;6.20;;;;;;;23.53;47.97;99799.14;102894;1305;98338;-75
2022/10/18 10:57:54;;;;;;;11.70;5.80;;;;;;;23.55;47.90;99796.48;102952;1299;107540;-76
2022/10/18 11:00:44;;;;;;;20.80;6.60;;;;;;;23.57;47.74;99788.45;103007;1299;95924;-75
2022/10/18 11:03:18;;;;;;;17.90;6.40;;;;;;;23.49;47.50;99787.17;102980;1299;97989;-76
2022/10/18 11:06:25;;;;;;;13.90;6.10;;;;;;;23.53;47.54;99784.11;102864;1306;111176;-75
2022/10/18 11:08:56;;;;;;;14.60;5.70;;;;;;;23.58;47.46;99782.08;102956;1299;96120;-75
2022/10/18 11:11:34;;;;;;;14.40;6.30;;;;;;;23.64;47.13;99774.09;102953;1302;107683;-76
2022/10/18 11:14:17;;;;;;;15.30;5.60;;;;;;;23.62;47.19;99767.03;102974;1290;96450;-75
2022/10/18 11:17:19;;;;;;;12.80;5.60;;;;;;;23.63;47.34;99769.67;103045;1297;98565;-77
2022/10/18 11:20:08;;;;;;;16.20;6.00;;;;;;;23.71;46.57;99765.14;103033;1293;111067;-76
2022/10/18 11:22:47;;;;;;;17.50;6.30;;;;;;;23.72;46.86;99755.93;102940;1299;95486;-77
2022/10/18 11:25:16;;;;;;;14.00;5.80;;;;;;;23.69;46.80;99753.38;103001;1299;107326;-76
2022/10/18 11:28:00;;;;;;;13.30;5.90;;;;;;;23.71;46.69;99749.73;102976;1299;96299;-76
2022/10/18 11:30:52;;;;;;;15.60;5.70;;;;;;;23.74;46.71;99743.09;102998;1299;95141;-76
2022/10/18 11:33:25;;;;;;;18.00;5.90;;;;;;;23.79;46.55;99745.33;102969;1299;111923;-76
2022/10/18 11:36:54;;;;;;;23.40;6.30;;;;;;;23.80;46.29;99741.15;103045;1314;98014;-76
2022/10/18 11:40:07;;;;;;;17.00;6.00;;;;;;;23.75;46.26;99736.06;102964;1305;107475;-77